sensor_id;sensor_type;location;lat;lon;timestamp;P1;durP1;ratioP1;P2;durP2;ratioP2
46643;SDS011;32371;51.032;5.816;2023-03-01T00:01:45;7.22;;;3.22;;
46643;SDS011;32371;51.032;5.816;2023-03-01T00:04:11;5.13;;;2.90;;
46643;SDS011;32371;51.032;5.816;2023-03-01T00:06:36;6.70;;;3.10;;
46643;SDS011;32371;51.032;5.816;2023-03-01T00:09:02;7.57;;;3.05;;
46643;SDS011;32371;51.032;5.816;2023-03-01T00:11:29;6.63;;;3.65;;
46643;SDS011;32371;51.032;5.816;2023-03-01T00:13:56;5.63;;;3.25;;
46643;SDS011;32371;51.032;5.816;2023-03-01T00:16:26;5.90;;;3.53;;
46643;SDS011;32371;51.032;5.816;2023-03-01T00:18:54;5.20;;;3.78;;
46643;SDS011;32371;51.032;5.816;2023-03-01T00:21:20;8.43;;;4.35;;
46643;SDS011;32371;51.032;5.816;2023-03-01T00:23:47;4.53;;;3.38;;
46643;SDS011;32371;51.032;5.816;2023-03-01T00:26:14;11.48;;;3.60;;
46643;SDS011;32371;51.032;5.816;2023-03-01T00:28:40;6.22;;;3.53;;
46643;SDS011;32371;51.032;5.816;2023-03-01T00:31:07;6.13;;;3.60;;
46643;SDS011;32371;51.032;5.816;2023-03-01T00:33:38;12.90;;;4.15;;
46643;SDS011;32371;51.032;5.816;2023-03-01T00:36:04;7.55;;;3.95;;
46643;SDS011;32371;51.032;5.816;2023-03-01T00:38:30;4.97;;;3.10;;
46643;SDS011;32371;51.032;5.816;2023-03-01T00:40:55;4.88;;;2.90;;
46643;SDS011;32371;51.032;5.816;2023-03-01T00:43:21;8.80;;;3.85;;
46643;SDS011;32371;51.032;5.816;2023-03-01T00:45:46;6.93;;;3.70;;
46643;SDS011;32371;51.032;5.816;2023-03-01T00:48:11;5.43;;;2.97;;
46643;SDS011;32371;51.032;5.816;2023-03-01T00:50:37;5.43;;;3.28;;
46643;SDS011;32371;51.032;5.816;2023-03-01T00:53:02;5.55;;;3.55;;
46643;SDS011;32371;51.032;5.816;2023-03-01T00:55:28;6.85;;;3.47;;
46643;SDS011;32371;51.032;5.816;2023-03-01T00:57:53;8.02;;;3.47;;
46643;SDS011;32371;51.032;5.816;2023-03-01T01:00:18;5.20;;;2.92;;
46643;SDS011;32371;51.032;5.816;2023-03-01T01:02:44;8.40;;;3.20;;
46643;SDS011;32371;51.032;5.816;2023-03-01T01:05:10;5.22;;;3.42;;
46643;SDS011;32371;51.032;5.816;2023-03-01T01:07:36;4.55;;;2.67;;
46643;SDS011;32371;51.032;5.816;2023-03-01T01:10:01;6.63;;;3.80;;
46643;SDS011;32371;51.032;5.816;2023-03-01T01:12:27;4.43;;;3.00;;
46643;SDS011;32371;51.032;5.816;2023-03-01T01:14:52;7.93;;;4.00;;
46643;SDS011;32371;51.032;5.816;2023-03-01T01:17:18;6.53;;;3.50;;
46643;SDS011;32371;51.032;5.816;2023-03-01T01:19:44;5.63;;;2.92;;
46643;SDS011;32371;51.032;5.816;2023-03-01T01:22:09;4.32;;;3.00;;
46643;SDS011;32371;51.032;5.816;2023-03-01T01:24:35;7.10;;;3.22;;
46643;SDS011;32371;51.032;5.816;2023-03-01T01:27:00;7.55;;;3.60;;
46643;SDS011;32371;51.032;5.816;2023-03-01T01:29:25;3.47;;;2.95;;
46643;SDS011;32371;51.032;5.816;2023-03-01T01:31:51;4.60;;;3.30;;
46643;SDS011;32371;51.032;5.816;2023-03-01T01:34:22;8.43;;;4.32;;
46643;SDS011;32371;51.032;5.816;2023-03-01T01:36:48;7.35;;;3.53;;
46643;SDS011;32371;51.032;5.816;2023-03-01T01:39:14;7.60;;;3.33;;
46643;SDS011;32371;51.032;5.816;2023-03-01T01:41:41;6.50;;;3.88;;
46643;SDS011;32371;51.032;5.816;2023-03-01T01:44:12;3.90;;;2.65;;
46643;SDS011;32371;51.032;5.816;2023-03-01T01:46:41;5.50;;;3.40;;
46643;SDS011;32371;51.032;5.816;2023-03-01T01:49:27;4.80;;;3.50;;
46643;SDS011;32371;51.032;5.816;2023-03-01T01:52:02;6.65;;;3.28;;
46643;SDS011;32371;51.032;5.816;2023-03-01T01:54:46;9.40;;;3.75;;
46643;SDS011;32371;51.032;5.816;2023-03-01T01:57:24;12.45;;;4.05;;
46643;SDS011;32371;51.032;5.816;2023-03-01T01:59:53;12.43;;;3.58;;
46643;SDS011;32371;51.032;5.816;2023-03-01T02:02:21;10.30;;;3.42;;
46643;SDS011;32371;51.032;5.816;2023-03-01T02:04:47;7.35;;;3.53;;
46643;SDS011;32371;51.032;5.816;2023-03-01T02:07:15;5.78;;;3.60;;
46643;SDS011;32371;51.032;5.816;2023-03-01T02:09:46;5.57;;;3.80;;
46643;SDS011;32371;51.032;5.816;2023-03-01T02:12:16;8.55;;;4.03;;
46643;SDS011;32371;51.032;5.816;2023-03-01T02:14:43;4.93;;;3.05;;
46643;SDS011;32371;51.032;5.816;2023-03-01T02:17:10;6.10;;;3.97;;
46643;SDS011;32371;51.032;5.816;2023-03-01T02:27:22;6.55;;;4.13;;
46643;SDS011;32371;51.032;5.816;2023-03-01T02:29:51;8.80;;;3.70;;
46643;SDS011;32371;51.032;5.816;2023-03-01T02:32:17;6.97;;;3.47;;
46643;SDS011;32371;51.032;5.816;2023-03-01T02:34:50;6.50;;;4.33;;
46643;SDS011;32371;51.032;5.816;2023-03-01T02:37:17;8.40;;;3.97;;
46643;SDS011;32371;51.032;5.816;2023-03-01T02:39:49;7.63;;;4.47;;
46643;SDS011;32371;51.032;5.816;2023-03-01T02:42:20;7.90;;;4.15;;
46643;SDS011;32371;51.032;5.816;2023-03-01T02:44:48;6.63;;;3.22;;
46643;SDS011;32371;51.032;5.816;2023-03-01T02:47:14;6.25;;;3.70;;
46643;SDS011;32371;51.032;5.816;2023-03-01T02:49:40;13.43;;;3.97;;
46643;SDS011;32371;51.032;5.816;2023-03-01T02:55:20;4.10;;;2.85;;
46643;SDS011;32371;51.032;5.816;2023-03-01T02:57:46;9.13;;;3.40;;
46643;SDS011;32371;51.032;5.816;2023-03-01T03:00:17;8.57;;;3.75;;
46643;SDS011;32371;51.032;5.816;2023-03-01T03:02:44;7.28;;;3.95;;
46643;SDS011;32371;51.032;5.816;2023-03-01T03:05:12;6.53;;;4.30;;
46643;SDS011;32371;51.032;5.816;2023-03-01T03:07:43;6.40;;;4.22;;
46643;SDS011;32371;51.032;5.816;2023-03-01T03:10:11;5.68;;;4.05;;
46643;SDS011;32371;51.032;5.816;2023-03-01T03:12:44;9.50;;;4.18;;
46643;SDS011;32371;51.032;5.816;2023-03-01T03:15:14;7.00;;;4.10;;
46643;SDS011;32371;51.032;5.816;2023-03-01T03:17:40;8.05;;;3.97;;
46643;SDS011;32371;51.032;5.816;2023-03-01T03:20:07;9.93;;;3.90;;
46643;SDS011;32371;51.032;5.816;2023-03-01T03:22:37;7.78;;;4.10;;
46643;SDS011;32371;51.032;5.816;2023-03-01T03:25:04;8.35;;;4.30;;
46643;SDS011;32371;51.032;5.816;2023-03-01T03:27:30;7.78;;;4.32;;
46643;SDS011;32371;51.032;5.816;2023-03-01T03:29:56;7.70;;;4.03;;
46643;SDS011;32371;51.032;5.816;2023-03-01T03:32:22;8.13;;;3.60;;
46643;SDS011;32371;51.032;5.816;2023-03-01T03:34:47;7.30;;;4.25;;
46643;SDS011;32371;51.032;5.816;2023-03-01T03:37:14;10.45;;;4.47;;
46643;SDS011;32371;51.032;5.816;2023-03-01T03:39:59;7.80;;;4.00;;
46643;SDS011;32371;51.032;5.816;2023-03-01T03:42:24;7.78;;;4.35;;
46643;SDS011;32371;51.032;5.816;2023-03-01T03:44:50;5.78;;;3.63;;
46643;SDS011;32371;51.032;5.816;2023-03-01T03:47:15;11.60;;;4.45;;
46643;SDS011;32371;51.032;5.816;2023-03-01T03:49:40;5.68;;;3.72;;
46643;SDS011;32371;51.032;5.816;2023-03-01T03:52:06;8.95;;;3.58;;
46643;SDS011;32371;51.032;5.816;2023-03-01T03:54:38;10.35;;;4.70;;
46643;SDS011;32371;51.032;5.816;2023-03-01T03:57:07;7.55;;;3.80;;
46643;SDS011;32371;51.032;5.816;2023-03-01T03:59:32;8.32;;;5.03;;
46643;SDS011;32371;51.032;5.816;2023-03-01T04:01:58;9.50;;;4.80;;
46643;SDS011;32371;51.032;5.816;2023-03-01T04:04:23;8.38;;;4.32;;
46643;SDS011;32371;51.032;5.816;2023-03-01T04:06:49;6.47;;;3.90;;
46643;SDS011;32371;51.032;5.816;2023-03-01T04:09:14;7.00;;;4.13;;
46643;SDS011;32371;51.032;5.816;2023-03-01T04:11:40;8.35;;;4.40;;
46643;SDS011;32371;51.032;5.816;2023-03-01T04:14:05;6.25;;;4.10;;
46643;SDS011;32371;51.032;5.816;2023-03-01T04:16:30;6.78;;;4.28;;
46643;SDS011;32371;51.032;5.816;2023-03-01T04:18:56;8.70;;;4.38;;
46643;SDS011;32371;51.032;5.816;2023-03-01T04:21:24;8.60;;;4.18;;
46643;SDS011;32371;51.032;5.816;2023-03-01T04:23:50;9.13;;;4.32;;
46643;SDS011;32371;51.032;5.816;2023-03-01T04:26:17;8.95;;;4.80;;
46643;SDS011;32371;51.032;5.816;2023-03-01T04:28:43;7.30;;;4.35;;
46643;SDS011;32371;51.032;5.816;2023-03-01T04:31:11;9.95;;;4.65;;
46643;SDS011;32371;51.032;5.816;2023-03-01T04:33:42;7.40;;;3.88;;
46643;SDS011;32371;51.032;5.816;2023-03-01T04:36:10;6.03;;;3.53;;
46643;SDS011;32371;51.032;5.816;2023-03-01T04:38:36;12.88;;;4.80;;
46643;SDS011;32371;51.032;5.816;2023-03-01T04:41:06;6.00;;;4.13;;
46643;SDS011;32371;51.032;5.816;2023-03-01T04:43:34;6.75;;;4.15;;
46643;SDS011;32371;51.032;5.816;2023-03-01T04:46:00;10.00;;;4.97;;
46643;SDS011;32371;51.032;5.816;2023-03-01T04:48:29;11.75;;;4.85;;
46643;SDS011;32371;51.032;5.816;2023-03-01T04:50:55;9.52;;;3.97;;
46643;SDS011;32371;51.032;5.816;2023-03-01T04:53:21;8.00;;;5.22;;
46643;SDS011;32371;51.032;5.816;2023-03-01T04:55:46;7.47;;;4.65;;
46643;SDS011;32371;51.032;5.816;2023-03-01T04:58:11;7.95;;;4.30;;
46643;SDS011;32371;51.032;5.816;2023-03-01T05:00:37;7.03;;;4.35;;
46643;SDS011;32371;51.032;5.816;2023-03-01T05:03:02;12.70;;;4.68;;
46643;SDS011;32371;51.032;5.816;2023-03-01T05:05:34;9.00;;;4.70;;
46643;SDS011;32371;51.032;5.816;2023-03-01T05:08:05;6.03;;;3.92;;
46643;SDS011;32371;51.032;5.816;2023-03-01T05:10:32;11.98;;;5.40;;
46643;SDS011;32371;51.032;5.816;2023-03-01T05:13:00;5.75;;;4.05;;
46643;SDS011;32371;51.032;5.816;2023-03-01T05:15:26;9.82;;;4.57;;
46643;SDS011;32371;51.032;5.816;2023-03-01T05:17:53;10.45;;;4.93;;
46643;SDS011;32371;51.032;5.816;2023-03-01T05:20:20;9.43;;;4.60;;
46643;SDS011;32371;51.032;5.816;2023-03-01T05:22:49;9.23;;;5.07;;
46643;SDS011;32371;51.032;5.816;2023-03-01T05:25:15;10.38;;;4.25;;
46643;SDS011;32371;51.032;5.816;2023-03-01T05:27:41;8.15;;;5.00;;
46643;SDS011;32371;51.032;5.816;2023-03-01T05:30:07;6.60;;;4.38;;
46643;SDS011;32371;51.032;5.816;2023-03-01T05:32:40;5.55;;;4.70;;
46643;SDS011;32371;51.032;5.816;2023-03-01T05:35:13;15.07;;;4.72;;
46643;SDS011;32371;51.032;5.816;2023-03-01T05:37:40;9.48;;;4.95;;
46643;SDS011;32371;51.032;5.816;2023-03-01T05:40:07;10.25;;;5.28;;
46643;SDS011;32371;51.032;5.816;2023-03-01T05:42:40;8.65;;;4.43;;
46643;SDS011;32371;51.032;5.816;2023-03-01T05:45:09;10.68;;;5.00;;
46643;SDS011;32371;51.032;5.816;2023-03-01T05:47:35;12.23;;;4.65;;
46643;SDS011;32371;51.032;5.816;2023-03-01T05:50:01;5.93;;;3.95;;
46643;SDS011;32371;51.032;5.816;2023-03-01T05:52:27;11.63;;;4.78;;
46643;SDS011;32371;51.032;5.816;2023-03-01T05:54:52;10.30;;;4.90;;
46643;SDS011;32371;51.032;5.816;2023-03-01T05:57:17;8.05;;;5.03;;
46643;SDS011;32371;51.032;5.816;2023-03-01T05:59:43;10.85;;;4.82;;
46643;SDS011;32371;51.032;5.816;2023-03-01T06:02:08;10.30;;;4.90;;
46643;SDS011;32371;51.032;5.816;2023-03-01T06:04:34;16.83;;;5.82;;
46643;SDS011;32371;51.032;5.816;2023-03-01T06:06:59;9.40;;;4.70;;
46643;SDS011;32371;51.032;5.816;2023-03-01T06:09:24;7.38;;;5.03;;
46643;SDS011;32371;51.032;5.816;2023-03-01T06:11:50;8.80;;;5.20;;
46643;SDS011;32371;51.032;5.816;2023-03-01T06:14:16;11.57;;;5.20;;
46643;SDS011;32371;51.032;5.816;2023-03-01T06:16:41;9.75;;;5.05;;
46643;SDS011;32371;51.032;5.816;2023-03-01T06:19:07;7.95;;;5.25;;
46643;SDS011;32371;51.032;5.816;2023-03-01T06:21:32;12.13;;;5.75;;
46643;SDS011;32371;51.032;5.816;2023-03-01T06:23:57;13.02;;;5.35;;
46643;SDS011;32371;51.032;5.816;2023-03-01T06:26:23;6.60;;;4.35;;
46643;SDS011;32371;51.032;5.816;2023-03-01T06:28:48;7.00;;;5.07;;
46643;SDS011;32371;51.032;5.816;2023-03-01T06:31:14;6.75;;;4.40;;
46643;SDS011;32371;51.032;5.816;2023-03-01T06:33:40;7.00;;;5.00;;
46643;SDS011;32371;51.032;5.816;2023-03-01T06:36:06;7.95;;;5.57;;
46643;SDS011;32371;51.032;5.816;2023-03-01T06:38:32;8.10;;;4.40;;
46643;SDS011;32371;51.032;5.816;2023-03-01T06:40:57;10.80;;;5.28;;
46643;SDS011;32371;51.032;5.816;2023-03-01T06:43:23;10.38;;;5.18;;
46643;SDS011;32371;51.032;5.816;2023-03-01T06:45:49;11.02;;;4.93;;
46643;SDS011;32371;51.032;5.816;2023-03-01T06:48:15;14.13;;;5.00;;
46643;SDS011;32371;51.032;5.816;2023-03-01T06:50:40;13.48;;;5.20;;
46643;SDS011;32371;51.032;5.816;2023-03-01T06:53:06;8.35;;;4.85;;
46643;SDS011;32371;51.032;5.816;2023-03-01T06:55:31;8.45;;;5.18;;
46643;SDS011;32371;51.032;5.816;2023-03-01T06:57:58;9.43;;;4.55;;
46643;SDS011;32371;51.032;5.816;2023-03-01T07:00:24;7.85;;;5.55;;
46643;SDS011;32371;51.032;5.816;2023-03-01T07:02:49;8.55;;;5.07;;
46643;SDS011;32371;51.032;5.816;2023-03-01T07:05:15;8.98;;;4.88;;
46643;SDS011;32371;51.032;5.816;2023-03-01T07:07:40;8.52;;;5.13;;
46643;SDS011;32371;51.032;5.816;2023-03-01T07:10:06;8.13;;;5.10;;
46643;SDS011;32371;51.032;5.816;2023-03-01T07:12:32;10.77;;;5.13;;
46643;SDS011;32371;51.032;5.816;2023-03-01T07:14:57;12.68;;;5.05;;
46643;SDS011;32371;51.032;5.816;2023-03-01T07:17:23;8.52;;;4.88;;
46643;SDS011;32371;51.032;5.816;2023-03-01T07:19:48;9.25;;;4.45;;
46643;SDS011;32371;51.032;5.816;2023-03-01T07:22:14;16.80;;;5.45;;
46643;SDS011;32371;51.032;5.816;2023-03-01T07:24:40;9.65;;;5.50;;
46643;SDS011;32371;51.032;5.816;2023-03-01T07:27:06;19.48;;;5.70;;
46643;SDS011;32371;51.032;5.816;2023-03-01T07:29:31;9.35;;;5.65;;
46643;SDS011;32371;51.032;5.816;2023-03-01T07:31:57;8.63;;;4.25;;
46643;SDS011;32371;51.032;5.816;2023-03-01T07:34:23;10.40;;;5.28;;
46643;SDS011;32371;51.032;5.816;2023-03-01T07:36:48;8.10;;;6.20;;
46643;SDS011;32371;51.032;5.816;2023-03-01T07:39:15;10.60;;;6.03;;
46643;SDS011;32371;51.032;5.816;2023-03-01T07:41:40;12.02;;;6.00;;
46643;SDS011;32371;51.032;5.816;2023-03-01T07:44:05;8.60;;;4.35;;
46643;SDS011;32371;51.032;5.816;2023-03-01T07:46:31;10.98;;;4.90;;
46643;SDS011;32371;51.032;5.816;2023-03-01T07:48:57;11.32;;;5.53;;
46643;SDS011;32371;51.032;5.816;2023-03-01T07:51:23;14.88;;;5.82;;
46643;SDS011;32371;51.032;5.816;2023-03-01T07:53:48;10.07;;;5.57;;
46643;SDS011;32371;51.032;5.816;2023-03-01T07:56:14;7.53;;;4.43;;
46643;SDS011;32371;51.032;5.816;2023-03-01T07:58:42;11.95;;;5.53;;
46643;SDS011;32371;51.032;5.816;2023-03-01T08:01:10;9.75;;;5.85;;
46643;SDS011;32371;51.032;5.816;2023-03-01T08:03:38;10.07;;;5.22;;
46643;SDS011;32371;51.032;5.816;2023-03-01T08:06:04;6.68;;;4.50;;
46643;SDS011;32371;51.032;5.816;2023-03-01T08:08:31;9.07;;;5.68;;
46643;SDS011;32371;51.032;5.816;2023-03-01T08:10:57;12.88;;;5.03;;
46643;SDS011;32371;51.032;5.816;2023-03-01T08:13:23;7.85;;;4.70;;
46643;SDS011;32371;51.032;5.816;2023-03-01T08:15:48;10.05;;;5.53;;
46643;SDS011;32371;51.032;5.816;2023-03-01T08:18:15;15.25;;;5.80;;
46643;SDS011;32371;51.032;5.816;2023-03-01T08:20:41;8.57;;;4.22;;
46643;SDS011;32371;51.032;5.816;2023-03-01T08:23:06;8.82;;;5.35;;
46643;SDS011;32371;51.032;5.816;2023-03-01T08:25:32;6.90;;;4.95;;
46643;SDS011;32371;51.032;5.816;2023-03-01T08:27:57;10.00;;;4.78;;
46643;SDS011;32371;51.032;5.816;2023-03-01T08:30:22;7.75;;;4.47;;
46643;SDS011;32371;51.032;5.816;2023-03-01T08:32:49;9.30;;;5.90;;
46643;SDS011;32371;51.032;5.816;2023-03-01T08:35:14;13.00;;;5.40;;
46643;SDS011;32371;51.032;5.816;2023-03-01T08:37:40;11.10;;;5.47;;
46643;SDS011;32371;51.032;5.816;2023-03-01T08:40:05;7.80;;;5.20;;
46643;SDS011;32371;51.032;5.816;2023-03-01T08:42:32;9.30;;;5.82;;
46643;SDS011;32371;51.032;5.816;2023-03-01T08:44:58;11.57;;;5.35;;
46643;SDS011;32371;51.032;5.816;2023-03-01T08:47:23;9.45;;;5.22;;
46643;SDS011;32371;51.032;5.816;2023-03-01T08:49:49;7.47;;;4.93;;
46643;SDS011;32371;51.032;5.816;2023-03-01T08:52:15;9.18;;;5.60;;
46643;SDS011;32371;51.032;5.816;2023-03-01T08:54:40;9.02;;;4.97;;
46643;SDS011;32371;51.032;5.816;2023-03-01T08:57:06;10.98;;;5.38;;
46643;SDS011;32371;51.032;5.816;2023-03-01T08:59:31;9.13;;;5.35;;
46643;SDS011;32371;51.032;5.816;2023-03-01T09:02:02;13.60;;;6.22;;
46643;SDS011;32371;51.032;5.816;2023-03-01T09:04:27;12.93;;;5.55;;
46643;SDS011;32371;51.032;5.816;2023-03-01T09:06:53;12.02;;;5.45;;
46643;SDS011;32371;51.032;5.816;2023-03-01T09:09:18;11.68;;;5.47;;
46643;SDS011;32371;51.032;5.816;2023-03-01T09:11:44;9.23;;;5.70;;
46643;SDS011;32371;51.032;5.816;2023-03-01T09:14:11;16.58;;;5.47;;
46643;SDS011;32371;51.032;5.816;2023-03-01T09:16:39;14.43;;;5.22;;
46643;SDS011;32371;51.032;5.816;2023-03-01T09:19:05;9.90;;;5.78;;
46643;SDS011;32371;51.032;5.816;2023-03-01T09:21:30;11.05;;;5.45;;
46643;SDS011;32371;51.032;5.816;2023-03-01T09:23:56;8.20;;;5.07;;
46643;SDS011;32371;51.032;5.816;2023-03-01T09:26:22;9.18;;;5.38;;
46643;SDS011;32371;51.032;5.816;2023-03-01T09:28:49;10.50;;;5.30;;
46643;SDS011;32371;51.032;5.816;2023-03-01T09:31:16;9.55;;;5.60;;
46643;SDS011;32371;51.032;5.816;2023-03-01T09:33:42;8.88;;;5.05;;
46643;SDS011;32371;51.032;5.816;2023-03-01T09:36:15;8.82;;;5.15;;
46643;SDS011;32371;51.032;5.816;2023-03-01T09:38:42;11.23;;;5.85;;
46643;SDS011;32371;51.032;5.816;2023-03-01T09:41:18;13.35;;;6.20;;
46643;SDS011;32371;51.032;5.816;2023-03-01T09:43:48;11.90;;;5.75;;
46643;SDS011;32371;51.032;5.816;2023-03-01T09:46:19;10.77;;;6.00;;
46643;SDS011;32371;51.032;5.816;2023-03-01T09:48:48;8.60;;;5.93;;
46643;SDS011;32371;51.032;5.816;2023-03-01T09:51:32;9.02;;;6.28;;
46643;SDS011;32371;51.032;5.816;2023-03-01T09:54:00;8.73;;;5.80;;
46643;SDS011;32371;51.032;5.816;2023-03-01T09:59:29;9.52;;;5.32;;
46643;SDS011;32371;51.032;5.816;2023-03-01T10:02:16;9.98;;;5.90;;
46643;SDS011;32371;51.032;5.816;2023-03-01T10:04:47;12.23;;;5.70;;
46643;SDS011;32371;51.032;5.816;2023-03-01T10:10:07;13.27;;;6.57;;
46643;SDS011;32371;51.032;5.816;2023-03-01T10:12:34;12.02;;;6.60;;
46643;SDS011;32371;51.032;5.816;2023-03-01T10:15:11;11.75;;;6.18;;
46643;SDS011;32371;51.032;5.816;2023-03-01T10:17:44;10.10;;;6.32;;
46643;SDS011;32371;51.032;5.816;2023-03-01T10:23:12;9.35;;;5.85;;
46643;SDS011;32371;51.032;5.816;2023-03-01T10:28:47;8.68;;;5.85;;
46643;SDS011;32371;51.032;5.816;2023-03-01T10:31:11;13.77;;;6.30;;
46643;SDS011;32371;51.032;5.816;2023-03-01T10:33:38;11.38;;;6.28;;
46643;SDS011;32371;51.032;5.816;2023-03-01T10:36:04;8.88;;;5.70;;
46643;SDS011;32371;51.032;5.816;2023-03-01T10:38:31;15.48;;;6.57;;
46643;SDS011;32371;51.032;5.816;2023-03-01T10:41:13;10.23;;;6.40;;
46643;SDS011;32371;51.032;5.816;2023-03-01T10:43:52;11.65;;;6.88;;
46643;SDS011;32371;51.032;5.816;2023-03-01T10:46:23;16.00;;;6.53;;
46643;SDS011;32371;51.032;5.816;2023-03-01T10:51:42;12.32;;;6.47;;
46643;SDS011;32371;51.032;5.816;2023-03-01T10:56:53;10.25;;;7.05;;
46643;SDS011;32371;51.032;5.816;2023-03-01T10:59:42;11.38;;;6.97;;
46643;SDS011;32371;51.032;5.816;2023-03-01T11:02:17;11.70;;;6.55;;
46643;SDS011;32371;51.032;5.816;2023-03-01T11:05:17;9.13;;;6.35;;
46643;SDS011;32371;51.032;5.816;2023-03-01T11:10:23;10.38;;;6.13;;
46643;SDS011;32371;51.032;5.816;2023-03-01T11:12:50;11.02;;;6.47;;
46643;SDS011;32371;51.032;5.816;2023-03-01T11:15:20;10.85;;;5.57;;
46643;SDS011;32371;51.032;5.816;2023-03-01T11:17:49;12.85;;;6.22;;
46643;SDS011;32371;51.032;5.816;2023-03-01T11:20:25;9.95;;;6.43;;
46643;SDS011;32371;51.032;5.816;2023-03-01T11:22:55;12.40;;;6.57;;
46643;SDS011;32371;51.032;5.816;2023-03-01T11:25:27;10.27;;;6.43;;
46643;SDS011;32371;51.032;5.816;2023-03-01T11:27:57;9.95;;;5.95;;
46643;SDS011;32371;51.032;5.816;2023-03-01T11:30:29;11.65;;;6.93;;
46643;SDS011;32371;51.032;5.816;2023-03-01T11:35:34;10.18;;;6.47;;
46643;SDS011;32371;51.032;5.816;2023-03-01T11:40:35;15.05;;;6.30;;
46643;SDS011;32371;51.032;5.816;2023-03-01T11:43:08;12.43;;;6.80;;
46643;SDS011;32371;51.032;5.816;2023-03-01T11:51:09;10.77;;;6.95;;
46643;SDS011;32371;51.032;5.816;2023-03-01T11:53:58;9.00;;;6.22;;
46643;SDS011;32371;51.032;5.816;2023-03-01T11:56:40;11.82;;;6.05;;
46643;SDS011;32371;51.032;5.816;2023-03-01T12:02:22;12.23;;;6.25;;
46643;SDS011;32371;51.032;5.816;2023-03-01T12:05:16;19.33;;;6.45;;
46643;SDS011;32371;51.032;5.816;2023-03-01T12:07:51;12.85;;;7.30;;
46643;SDS011;32371;51.032;5.816;2023-03-01T12:18:44;14.73;;;7.07;;
46643;SDS011;32371;51.032;5.816;2023-03-01T12:21:30;8.30;;;5.38;;
46643;SDS011;32371;51.032;5.816;2023-03-01T12:30:57;9.88;;;6.18;;
46643;SDS011;32371;51.032;5.816;2023-03-01T12:41:46;11.40;;;5.57;;
46643;SDS011;32371;51.032;5.816;2023-03-01T12:49:54;9.85;;;5.60;;
46643;SDS011;32371;51.032;5.816;2023-03-01T12:54:47;10.15;;;5.35;;
46643;SDS011;32371;51.032;5.816;2023-03-01T13:02:35;10.32;;;5.63;;
46643;SDS011;32371;51.032;5.816;2023-03-01T13:05:56;9.07;;;5.72;;
46643;SDS011;32371;51.032;5.816;2023-03-01T13:08:01;10.70;;;5.53;;
46643;SDS011;32371;51.032;5.816;2023-03-01T13:17:53;8.93;;;5.47;;
46643;SDS011;32371;51.032;5.816;2023-03-01T13:20:20;8.10;;;5.20;;
46643;SDS011;32371;51.032;5.816;2023-03-01T13:22:46;9.07;;;5.15;;
46643;SDS011;32371;51.032;5.816;2023-03-01T13:27:38;8.95;;;5.13;;
46643;SDS011;32371;51.032;5.816;2023-03-01T13:30:03;6.82;;;5.13;;
46643;SDS011;32371;51.032;5.816;2023-03-01T13:32:34;8.90;;;5.75;;
46643;SDS011;32371;51.032;5.816;2023-03-01T13:37:39;10.32;;;5.57;;
46643;SDS011;32371;51.032;5.816;2023-03-01T13:42:46;8.48;;;5.32;;
46643;SDS011;32371;51.032;5.816;2023-03-01T13:45:17;6.97;;;4.82;;
46643;SDS011;32371;51.032;5.816;2023-03-01T13:47:43;8.95;;;5.20;;
46643;SDS011;32371;51.032;5.816;2023-03-01T13:50:24;6.97;;;5.18;;
46643;SDS011;32371;51.032;5.816;2023-03-01T13:52:59;8.57;;;4.80;;
46643;SDS011;32371;51.032;5.816;2023-03-01T13:55:27;7.82;;;4.38;;
46643;SDS011;32371;51.032;5.816;2023-03-01T13:58:00;7.55;;;5.15;;
46643;SDS011;32371;51.032;5.816;2023-03-01T14:03:03;9.88;;;5.38;;
46643;SDS011;32371;51.032;5.816;2023-03-01T14:05:29;11.00;;;4.72;;
46643;SDS011;32371;51.032;5.816;2023-03-01T14:07:55;7.05;;;4.50;;
46643;SDS011;32371;51.032;5.816;2023-03-01T14:10:21;7.38;;;4.60;;
46643;SDS011;32371;51.032;5.816;2023-03-01T14:20:32;9.77;;;4.70;;
46643;SDS011;32371;51.032;5.816;2023-03-01T14:23:01;8.88;;;4.63;;
46643;SDS011;32371;51.032;5.816;2023-03-01T14:25:28;7.10;;;4.97;;
46643;SDS011;32371;51.032;5.816;2023-03-01T14:28:16;8.90;;;4.18;;
46643;SDS011;32371;51.032;5.816;2023-03-01T14:33:25;9.90;;;4.15;;
46643;SDS011;32371;51.032;5.816;2023-03-01T14:36:02;8.70;;;4.22;;
46643;SDS011;32371;51.032;5.816;2023-03-01T14:38:35;9.45;;;4.20;;
46643;SDS011;32371;51.032;5.816;2023-03-01T14:41:03;11.40;;;4.45;;
46643;SDS011;32371;51.032;5.816;2023-03-01T14:43:31;7.30;;;3.85;;
46643;SDS011;32371;51.032;5.816;2023-03-01T14:45:57;7.75;;;4.28;;
46643;SDS011;32371;51.032;5.816;2023-03-01T14:48:22;8.88;;;4.32;;
46643;SDS011;32371;51.032;5.816;2023-03-01T14:50:48;8.50;;;4.35;;
46643;SDS011;32371;51.032;5.816;2023-03-01T14:53:19;8.10;;;4.05;;
46643;SDS011;32371;51.032;5.816;2023-03-01T14:55:53;8.65;;;4.15;;
46643;SDS011;32371;51.032;5.816;2023-03-01T14:58:21;6.10;;;3.80;;
46643;SDS011;32371;51.032;5.816;2023-03-01T15:00:50;8.75;;;3.88;;
46643;SDS011;32371;51.032;5.816;2023-03-01T15:03:26;11.50;;;3.75;;
46643;SDS011;32371;51.032;5.816;2023-03-01T15:05:56;8.50;;;3.85;;
46643;SDS011;32371;51.032;5.816;2023-03-01T15:08:23;6.53;;;3.80;;
46643;SDS011;32371;51.032;5.816;2023-03-01T15:10:56;6.80;;;3.88;;
46643;SDS011;32371;51.032;5.816;2023-03-01T15:13:29;8.68;;;3.92;;
46643;SDS011;32371;51.032;5.816;2023-03-01T15:16:11;6.47;;;3.97;;
46643;SDS011;32371;51.032;5.816;2023-03-01T15:18:42;6.38;;;3.45;;
46643;SDS011;32371;51.032;5.816;2023-03-01T15:21:23;8.45;;;3.70;;
46643;SDS011;32371;51.032;5.816;2023-03-01T15:23:56;7.30;;;3.15;;
46643;SDS011;32371;51.032;5.816;2023-03-01T15:26:25;8.63;;;3.65;;
46643;SDS011;32371;51.032;5.816;2023-03-01T15:29:04;6.13;;;3.78;;
46643;SDS011;32371;51.032;5.816;2023-03-01T15:31:41;6.72;;;3.67;;
46643;SDS011;32371;51.032;5.816;2023-03-01T15:34:23;7.28;;;3.67;;
46643;SDS011;32371;51.032;5.816;2023-03-01T15:36:50;8.60;;;4.43;;
46643;SDS011;32371;51.032;5.816;2023-03-01T15:39:52;6.28;;;3.83;;
46643;SDS011;32371;51.032;5.816;2023-03-01T15:47:38;6.82;;;3.63;;
46643;SDS011;32371;51.032;5.816;2023-03-01T15:50:05;10.10;;;4.00;;
46643;SDS011;32371;51.032;5.816;2023-03-01T15:52:34;6.68;;;3.58;;
46643;SDS011;32371;51.032;5.816;2023-03-01T15:55:05;6.38;;;3.88;;
46643;SDS011;32371;51.032;5.816;2023-03-01T15:57:32;6.88;;;3.40;;
46643;SDS011;32371;51.032;5.816;2023-03-01T15:59:57;7.57;;;3.65;;
46643;SDS011;32371;51.032;5.816;2023-03-01T16:02:23;8.27;;;3.55;;
46643;SDS011;32371;51.032;5.816;2023-03-01T16:04:49;7.28;;;4.07;;
46643;SDS011;32371;51.032;5.816;2023-03-01T16:07:15;11.38;;;4.22;;
46643;SDS011;32371;51.032;5.816;2023-03-01T16:09:40;8.55;;;4.55;;
46643;SDS011;32371;51.032;5.816;2023-03-01T16:12:08;11.27;;;4.05;;
46643;SDS011;32371;51.032;5.816;2023-03-01T16:14:45;9.85;;;4.55;;
46643;SDS011;32371;51.032;5.816;2023-03-01T16:17:10;8.95;;;3.55;;
46643;SDS011;32371;51.032;5.816;2023-03-01T16:19:36;5.35;;;3.45;;
46643;SDS011;32371;51.032;5.816;2023-03-01T16:22:03;5.70;;;3.53;;
46643;SDS011;32371;51.032;5.816;2023-03-01T16:24:28;9.93;;;4.57;;
46643;SDS011;32371;51.032;5.816;2023-03-01T16:26:54;5.72;;;3.35;;
46643;SDS011;32371;51.032;5.816;2023-03-01T16:29:19;4.40;;;3.38;;
46643;SDS011;32371;51.032;5.816;2023-03-01T16:31:45;6.65;;;3.70;;
46643;SDS011;32371;51.032;5.816;2023-03-01T16:34:10;8.93;;;4.32;;
46643;SDS011;32371;51.032;5.816;2023-03-01T16:36:35;6.15;;;3.88;;
46643;SDS011;32371;51.032;5.816;2023-03-01T16:39:01;7.20;;;4.32;;
46643;SDS011;32371;51.032;5.816;2023-03-01T16:41:28;7.05;;;4.47;;
46643;SDS011;32371;51.032;5.816;2023-03-01T16:43:53;5.28;;;3.00;;
46643;SDS011;32371;51.032;5.816;2023-03-01T16:46:20;9.00;;;4.05;;